sensor_id;sensor_type;location;lat;lon;timestamp;temperature;humidity
2999;DHT22;1509;51.964;7.628;2023-06-10T00:01:37;21.70;99.90
2999;DHT22;1509;51.964;7.628;2023-06-10T00:04:03;21.80;99.90
2999;DHT22;1509;51.964;7.628;2023-06-10T00:06:29;21.60;99.90
2999;DHT22;1509;51.964;7.628;2023-06-10T00:09:02;21.60;99.90
2999;DHT22;1509;51.964;7.628;2023-06-10T00:11:30;21.60;99.90
2999;DHT22;1509;51.964;7.628;2023-06-10T00:13:55;21.50;99.90
2999;DHT22;1509;51.964;7.628;2023-06-10T00:16:21;21.50;99.90
2999;DHT22;1509;51.964;7.628;2023-06-10T00:18:47;21.30;99.90
2999;DHT22;1509;51.964;7.628;2023-06-10T00:21:14;21.30;99.90
2999;DHT22;1509;51.964;7.628;2023-06-10T00:23:39;21.30;99.90
2999;DHT22;1509;51.964;7.628;2023-06-10T00:26:06;21.30;99.90
2999;DHT22;1509;51.964;7.628;2023-06-10T00:28:32;21.30;99.90
2999;DHT22;1509;51.964;7.628;2023-06-10T00:30:58;21.10;99.90
2999;DHT22;1509;51.964;7.628;2023-06-10T00:33:23;21.20;99.90
2999;DHT22;1509;51.964;7.628;2023-06-10T00:35:49;21.20;99.90
2999;DHT22;1509;51.964;7.628;2023-06-10T00:38:15;21.10;99.90
2999;DHT22;1509;51.964;7.628;2023-06-10T00:40:41;21.20;99.90
2999;DHT22;1509;51.964;7.628;2023-06-10T00:43:07;21.20;99.90
2999;DHT22;1509;51.964;7.628;2023-06-10T00:45:33;21.10;99.90
2999;DHT22;1509;51.964;7.628;2023-06-10T00:48:00;21.10;99.90
2999;DHT22;1509;51.964;7.628;2023-06-10T00:50:26;21.10;99.90
2999;DHT22;1509;51.964;7.628;2023-06-10T00:52:52;21.00;99.90
2999;DHT22;1509;51.964;7.628;2023-06-10T00:55:19;21.00;99.90
2999;DHT22;1509;51.964;7.628;2023-06-10T00:57:46;21.00;99.90
2999;DHT22;1509;51.964;7.628;2023-06-10T01:00:14;20.80;99.90
2999;DHT22;1509;51.964;7.628;2023-06-10T01:02:41;20.80;99.90
2999;DHT22;1509;51.964;7.628;2023-06-10T01:05:08;20.90;99.90
2999;DHT22;1509;51.964;7.628;2023-06-10T01:13:08;20.80;99.90
2999;DHT22;1509;51.964;7.628;2023-06-10T01:15:37;20.80;99.90
2999;DHT22;1509;51.964;7.628;2023-06-10T01:18:05;20.60;99.90
2999;DHT22;1509;51.964;7.628;2023-06-10T01:20:32;20.70;99.90
2999;DHT22;1509;51.964;7.628;2023-06-10T01:23:00;20.50;99.90
2999;DHT22;1509;51.964;7.628;2023-06-10T01:25:27;20.60;99.90
2999;DHT22;1509;51.964;7.628;2023-06-10T01:30:55;20.50;99.90
2999;DHT22;1509;51.964;7.628;2023-06-10T01:33:27;20.50;99.90
2999;DHT22;1509;51.964;7.628;2023-06-10T01:35:56;20.40;99.90
2999;DHT22;1509;51.964;7.628;2023-06-10T01:38:23;20.30;99.90
2999;DHT22;1509;51.964;7.628;2023-06-10T01:40:52;20.30;99.90
2999;DHT22;1509;51.964;7.628;2023-06-10T01:43:20;20.20;99.90
2999;DHT22;1509;51.964;7.628;2023-06-10T01:45:46;20.20;99.90
2999;DHT22;1509;51.964;7.628;2023-06-10T01:48:14;20.00;99.90
2999;DHT22;1509;51.964;7.628;2023-06-10T01:50:39;20.10;99.90
2999;DHT22;1509;51.964;7.628;2023-06-10T01:53:07;20.20;99.90
2999;DHT22;1509;51.964;7.628;2023-06-10T01:55:33;20.10;99.90
2999;DHT22;1509;51.964;7.628;2023-06-10T01:57:58;20.00;99.90
2999;DHT22;1509;51.964;7.628;2023-06-10T02:00:24;20.00;99.90
2999;DHT22;1509;51.964;7.628;2023-06-10T02:02:50;20.00;99.90
2999;DHT22;1509;51.964;7.628;2023-06-10T02:05:16;19.70;99.90
2999;DHT22;1509;51.964;7.628;2023-06-10T02:07:41;20.00;99.90
2999;DHT22;1509;51.964;7.628;2023-06-10T02:10:07;20.00;99.90
2999;DHT22;1509;51.964;7.628;2023-06-10T02:12:33;19.90;99.90
2999;DHT22;1509;51.964;7.628;2023-06-10T02:14:59;19.90;99.90
2999;DHT22;1509;51.964;7.628;2023-06-10T02:17:24;19.90;99.90
2999;DHT22;1509;51.964;7.628;2023-06-10T02:19:50;19.80;99.90
2999;DHT22;1509;51.964;7.628;2023-06-10T02:22:22;19.80;99.90
2999;DHT22;1509;51.964;7.628;2023-06-10T02:24:48;19.80;99.90
2999;DHT22;1509;51.964;7.628;2023-06-10T02:27:15;19.60;99.90
2999;DHT22;1509;51.964;7.628;2023-06-10T02:29:41;19.60;99.90
2999;DHT22;1509;51.964;7.628;2023-06-10T02:32:07;19.60;99.90
2999;DHT22;1509;51.964;7.628;2023-06-10T02:34:33;19.50;99.90
2999;DHT22;1509;51.964;7.628;2023-06-10T02:36:59;19.50;99.90
2999;DHT22;1509;51.964;7.628;2023-06-10T02:39:24;19.50;99.90
2999;DHT22;1509;51.964;7.628;2023-06-10T02:41:50;19.40;99.90
2999;DHT22;1509;51.964;7.628;2023-06-10T02:44:18;19.40;99.90
2999;DHT22;1509;51.964;7.628;2023-06-10T02:46:44;19.40;99.90
2999;DHT22;1509;51.964;7.628;2023-06-10T02:49:09;19.30;99.90
2999;DHT22;1509;51.964;7.628;2023-06-10T02:51:35;19.20;99.90
2999;DHT22;1509;51.964;7.628;2023-06-10T02:54:01;19.20;99.90
2999;DHT22;1509;51.964;7.628;2023-06-10T02:56:27;19.20;99.90
2999;DHT22;1509;51.964;7.628;2023-06-10T02:58:52;19.20;99.90
2999;DHT22;1509;51.964;7.628;2023-06-10T03:01:18;19.00;99.90
2999;DHT22;1509;51.964;7.628;2023-06-10T03:03:44;19.10;99.90
2999;DHT22;1509;51.964;7.628;2023-06-10T03:06:12;19.20;99.90
2999;DHT22;1509;51.964;7.628;2023-06-10T03:08:39;19.10;99.90
2999;DHT22;1509;51.964;7.628;2023-06-10T03:11:05;19.10;99.90
2999;DHT22;1509;51.964;7.628;2023-06-10T03:13:31;19.10;99.90
2999;DHT22;1509;51.964;7.628;2023-06-10T03:15:57;18.90;99.90
2999;DHT22;1509;51.964;7.628;2023-06-10T03:18:26;19.10;99.90
2999;DHT22;1509;51.964;7.628;2023-06-10T03:20:52;19.00;99.90
2999;DHT22;1509;51.964;7.628;2023-06-10T03:23:17;19.20;99.90
2999;DHT22;1509;51.964;7.628;2023-06-10T03:25:44;18.80;99.90
2999;DHT22;1509;51.964;7.628;2023-06-10T03:28:10;18.90;99.90
2999;DHT22;1509;51.964;7.628;2023-06-10T03:30:36;18.90;99.90
2999;DHT22;1509;51.964;7.628;2023-06-10T03:33:01;19.00;99.90
2999;DHT22;1509;51.964;7.628;2023-06-10T03:35:27;19.00;99.90
2999;DHT22;1509;51.964;7.628;2023-06-10T03:37:52;18.90;99.90
2999;DHT22;1509;51.964;7.628;2023-06-10T03:40:18;18.90;99.90
2999;DHT22;1509;51.964;7.628;2023-06-10T03:42:44;18.90;99.90
2999;DHT22;1509;51.964;7.628;2023-06-10T03:45:10;18.80;99.90
2999;DHT22;1509;51.964;7.628;2023-06-10T03:47:37;18.80;99.90
2999;DHT22;1509;51.964;7.628;2023-06-10T03:50:06;18.80;99.90
2999;DHT22;1509;51.964;7.628;2023-06-10T03:52:33;18.80;99.90
2999;DHT22;1509;51.964;7.628;2023-06-10T03:54:59;18.80;99.90
2999;DHT22;1509;51.964;7.628;2023-06-10T03:57:25;18.70;99.90
2999;DHT22;1509;51.964;7.628;2023-06-10T03:59:51;18.70;99.90
2999;DHT22;1509;51.964;7.628;2023-06-10T04:02:16;18.70;99.90
2999;DHT22;1509;51.964;7.628;2023-06-10T04:04:43;18.80;99.90
2999;DHT22;1509;51.964;7.628;2023-06-10T04:07:08;18.80;99.90
2999;DHT22;1509;51.964;7.628;2023-06-10T04:09:35;18.80;99.90
2999;DHT22;1509;51.964;7.628;2023-06-10T04:12:01;18.80;99.90
2999;DHT22;1509;51.964;7.628;2023-06-10T04:14:27;18.80;99.90
2999;DHT22;1509;51.964;7.628;2023-06-10T04:16:53;18.80;99.90
2999;DHT22;1509;51.964;7.628;2023-06-10T04:19:19;18.80;99.90
2999;DHT22;1509;51.964;7.628;2023-06-10T04:21:46;18.80;99.90
2999;DHT22;1509;51.964;7.628;2023-06-10T04:24:11;18.80;99.90
2999;DHT22;1509;51.964;7.628;2023-06-10T04:26:37;18.80;99.90
2999;DHT22;1509;51.964;7.628;2023-06-10T04:29:03;18.80;99.90
2999;DHT22;1509;51.964;7.628;2023-06-10T04:31:29;18.80;99.90
2999;DHT22;1509;51.964;7.628;2023-06-10T04:33:55;18.80;99.90
2999;DHT22;1509;51.964;7.628;2023-06-10T04:36:20;18.80;99.90
2999;DHT22;1509;51.964;7.628;2023-06-10T04:38:46;18.80;99.90
2999;DHT22;1509;51.964;7.628;2023-06-10T04:41:12;18.90;99.90
2999;DHT22;1509;51.964;7.628;2023-06-10T04:43:38;18.90;99.90
2999;DHT22;1509;51.964;7.628;2023-06-10T04:46:04;18.80;99.90
2999;DHT22;1509;51.964;7.628;2023-06-10T04:48:29;18.80;99.90
2999;DHT22;1509;51.964;7.628;2023-06-10T04:50:55;18.80;99.90
2999;DHT22;1509;51.964;7.628;2023-06-10T04:53:22;18.90;99.90
2999;DHT22;1509;51.964;7.628;2023-06-10T04:55:48;18.90;99.90
2999;DHT22;1509;51.964;7.628;2023-06-10T04:58:14;18.90;99.90
2999;DHT22;1509;51.964;7.628;2023-06-10T05:00:39;18.90;99.90
2999;DHT22;1509;51.964;7.628;2023-06-10T05:03:05;18.80;99.90
2999;DHT22;1509;51.964;7.628;2023-06-10T05:05:31;18.90;99.90
2999;DHT22;1509;51.964;7.628;2023-06-10T05:07:56;18.80;99.90
2999;DHT22;1509;51.964;7.628;2023-06-10T05:10:22;18.90;99.90
2999;DHT22;1509;51.964;7.628;2023-06-10T05:12:48;19.00;99.90
2999;DHT22;1509;51.964;7.628;2023-06-10T05:15:13;19.10;99.90
2999;DHT22;1509;51.964;7.628;2023-06-10T05:17:39;19.00;99.90
2999;DHT22;1509;51.964;7.628;2023-06-10T05:20:05;19.20;99.90
2999;DHT22;1509;51.964;7.628;2023-06-10T05:22:31;19.20;99.90
2999;DHT22;1509;51.964;7.628;2023-06-10T05:24:57;19.10;99.90
2999;DHT22;1509;51.964;7.628;2023-06-10T05:27:23;19.10;99.90
2999;DHT22;1509;51.964;7.628;2023-06-10T05:29:49;19.20;99.90
2999;DHT22;1509;51.964;7.628;2023-06-10T05:32:17;19.20;99.90
2999;DHT22;1509;51.964;7.628;2023-06-10T05:34:42;19.20;99.90
2999;DHT22;1509;51.964;7.628;2023-06-10T05:37:08;19.30;99.90
2999;DHT22;1509;51.964;7.628;2023-06-10T05:39:35;19.30;99.90
2999;DHT22;1509;51.964;7.628;2023-06-10T05:42:04;19.30;99.90
2999;DHT22;1509;51.964;7.628;2023-06-10T05:44:32;19.40;99.90
2999;DHT22;1509;51.964;7.628;2023-06-10T05:46:57;19.40;99.90
2999;DHT22;1509;51.964;7.628;2023-06-10T05:49:23;19.50;99.90
2999;DHT22;1509;51.964;7.628;2023-06-10T05:51:48;19.50;99.90
2999;DHT22;1509;51.964;7.628;2023-06-10T05:54:14;19.50;99.90
2999;DHT22;1509;51.964;7.628;2023-06-10T05:56:40;19.60;99.90
2999;DHT22;1509;51.964;7.628;2023-06-10T05:59:05;19.50;99.90
2999;DHT22;1509;51.964;7.628;2023-06-10T06:01:31;19.50;99.90
2999;DHT22;1509;51.964;7.628;2023-06-10T06:03:57;19.60;99.90
2999;DHT22;1509;51.964;7.628;2023-06-10T06:06:22;19.60;99.90
2999;DHT22;1509;51.964;7.628;2023-06-10T06:08:49;19.80;99.90
2999;DHT22;1509;51.964;7.628;2023-06-10T06:11:14;19.90;99.90
2999;DHT22;1509;51.964;7.628;2023-06-10T06:13:40;20.00;99.90
2999;DHT22;1509;51.964;7.628;2023-06-10T06:16:07;20.00;99.90
2999;DHT22;1509;51.964;7.628;2023-06-10T06:18:33;20.10;99.90
2999;DHT22;1509;51.964;7.628;2023-06-10T06:20:58;20.20;99.90
2999;DHT22;1509;51.964;7.628;2023-06-10T06:23:24;20.20;99.90
2999;DHT22;1509;51.964;7.628;2023-06-10T06:25:50;20.30;99.90
2999;DHT22;1509;51.964;7.628;2023-06-10T06:28:15;20.30;99.90
2999;DHT22;1509;51.964;7.628;2023-06-10T06:30:41;20.40;99.90
2999;DHT22;1509;51.964;7.628;2023-06-10T06:33:07;20.40;99.90
2999;DHT22;1509;51.964;7.628;2023-06-10T06:35:33;20.50;99.90
2999;DHT22;1509;51.964;7.628;2023-06-10T06:37:59;20.60;99.90
2999;DHT22;1509;51.964;7.628;2023-06-10T06:40:25;20.60;99.90
2999;DHT22;1509;51.964;7.628;2023-06-10T06:42:51;20.80;99.90
2999;DHT22;1509;51.964;7.628;2023-06-10T06:45:16;20.90;99.90
2999;DHT22;1509;51.964;7.628;2023-06-10T06:47:42;20.90;99.90
2999;DHT22;1509;51.964;7.628;2023-06-10T06:50:09;21.00;99.90
2999;DHT22;1509;51.964;7.628;2023-06-10T06:52:35;21.20;99.90
2999;DHT22;1509;51.964;7.628;2023-06-10T06:55:00;21.20;99.90
2999;DHT22;1509;51.964;7.628;2023-06-10T06:57:26;21.30;99.90
2999;DHT22;1509;51.964;7.628;2023-06-10T06:59:51;21.30;99.90
2999;DHT22;1509;51.964;7.628;2023-06-10T07:02:17;21.40;99.90
2999;DHT22;1509;51.964;7.628;2023-06-10T07:04:44;21.50;99.90
2999;DHT22;1509;51.964;7.628;2023-06-10T07:07:11;21.50;99.90
2999;DHT22;1509;51.964;7.628;2023-06-10T07:09:37;21.60;99.90
2999;DHT22;1509;51.964;7.628;2023-06-10T07:12:03;21.70;99.90
2999;DHT22;1509;51.964;7.628;2023-06-10T07:14:29;21.70;99.90
2999;DHT22;1509;51.964;7.628;2023-06-10T07:16:55;21.80;99.90
2999;DHT22;1509;51.964;7.628;2023-06-10T07:19:20;21.90;99.90
2999;DHT22;1509;51.964;7.628;2023-06-10T07:21:46;22.00;99.90
2999;DHT22;1509;51.964;7.628;2023-06-10T07:24:12;22.00;99.90
2999;DHT22;1509;51.964;7.628;2023-06-10T07:26:37;22.10;99.90
2999;DHT22;1509;51.964;7.628;2023-06-10T07:29:03;22.20;99.90
2999;DHT22;1509;51.964;7.628;2023-06-10T07:31:28;22.30;99.90
2999;DHT22;1509;51.964;7.628;2023-06-10T07:33:54;22.40;99.90
2999;DHT22;1509;51.964;7.628;2023-06-10T07:36:20;22.50;99.90
2999;DHT22;1509;51.964;7.628;2023-06-10T07:38:45;22.50;99.90
2999;DHT22;1509;51.964;7.628;2023-06-10T07:41:11;22.60;99.90
2999;DHT22;1509;51.964;7.628;2023-06-10T07:43:37;22.70;99.90
2999;DHT22;1509;51.964;7.628;2023-06-10T07:46:03;22.80;99.90
2999;DHT22;1509;51.964;7.628;2023-06-10T07:48:30;22.80;99.90
2999;DHT22;1509;51.964;7.628;2023-06-10T07:50:56;22.90;99.90
2999;DHT22;1509;51.964;7.628;2023-06-10T07:53:22;23.00;99.90
2999;DHT22;1509;51.964;7.628;2023-06-10T07:55:48;23.10;99.90
2999;DHT22;1509;51.964;7.628;2023-06-10T07:58:13;23.30;99.90
2999;DHT22;1509;51.964;7.628;2023-06-10T08:00:39;23.30;99.90
2999;DHT22;1509;51.964;7.628;2023-06-10T08:03:04;23.40;99.90
2999;DHT22;1509;51.964;7.628;2023-06-10T08:05:30;23.40;99.90
2999;DHT22;1509;51.964;7.628;2023-06-10T08:07:56;23.50;99.90
2999;DHT22;1509;51.964;7.628;2023-06-10T08:10:21;23.60;99.90
2999;DHT22;1509;51.964;7.628;2023-06-10T08:12:47;23.60;99.90
2999;DHT22;1509;51.964;7.628;2023-06-10T08:15:13;23.70;99.90
2999;DHT22;1509;51.964;7.628;2023-06-10T08:17:39;23.70;99.90
2999;DHT22;1509;51.964;7.628;2023-06-10T08:20:06;23.90;99.90
2999;DHT22;1509;51.964;7.628;2023-06-10T08:22:31;23.90;99.90
2999;DHT22;1509;51.964;7.628;2023-06-10T08:24:57;24.00;99.90
2999;DHT22;1509;51.964;7.628;2023-06-10T08:27:23;24.10;99.90
2999;DHT22;1509;51.964;7.628;2023-06-10T08:29:48;24.20;99.90
2999;DHT22;1509;51.964;7.628;2023-06-10T08:32:14;24.20;99.90
2999;DHT22;1509;51.964;7.628;2023-06-10T08:34:40;24.30;99.90
2999;DHT22;1509;51.964;7.628;2023-06-10T08:37:07;24.40;99.90
2999;DHT22;1509;51.964;7.628;2023-06-10T08:39:33;24.50;99.90
2999;DHT22;1509;51.964;7.628;2023-06-10T08:44:42;24.60;99.90
2999;DHT22;1509;51.964;7.628;2023-06-10T08:47:17;24.60;99.90
2999;DHT22;1509;51.964;7.628;2023-06-10T08:49:47;24.60;99.90
2999;DHT22;1509;51.964;7.628;2023-06-10T08:52:20;24.70;99.90
2999;DHT22;1509;51.964;7.628;2023-06-10T08:55:04;24.90;99.90
2999;DHT22;1509;51.964;7.628;2023-06-10T08:57:30;25.00;99.90
2999;DHT22;1509;51.964;7.628;2023-06-10T08:59:57;25.10;99.90
2999;DHT22;1509;51.964;7.628;2023-06-10T09:02:27;25.30;99.90
2999;DHT22;1509;51.964;7.628;2023-06-10T09:04:53;25.40;99.90
2999;DHT22;1509;51.964;7.628;2023-06-10T09:07:21;25.60;99.90
2999;DHT22;1509;51.964;7.628;2023-06-10T09:09:48;25.80;99.90
2999;DHT22;1509;51.964;7.628;2023-06-10T09:12:14;26.00;99.90
2999;DHT22;1509;51.964;7.628;2023-06-10T09:14:44;26.30;99.90
2999;DHT22;1509;51.964;7.628;2023-06-10T09:17:12;26.70;99.90
2999;DHT22;1509;51.964;7.628;2023-06-10T09:19:38;27.20;99.90
2999;DHT22;1509;51.964;7.628;2023-06-10T09:22:05;28.00;99.90
2999;DHT22;1509;51.964;7.628;2023-06-10T09:24:31;29.60;99.90
2999;DHT22;1509;51.964;7.628;2023-06-10T09:27:04;31.70;99.90
2999;DHT22;1509;51.964;7.628;2023-06-10T09:29:32;32.80;99.90
2999;DHT22;1509;51.964;7.628;2023-06-10T09:32:10;33.20;99.90
2999;DHT22;1509;51.964;7.628;2023-06-10T09:34:39;34.30;99.90
2999;DHT22;1509;51.964;7.628;2023-06-10T09:37:05;35.40;99.90
2999;DHT22;1509;51.964;7.628;2023-06-10T09:39:31;36.20;99.90
2999;DHT22;1509;51.964;7.628;2023-06-10T09:41:56;37.10;99.90
2999;DHT22;1509;51.964;7.628;2023-06-10T09:44:23;37.50;99.90
2999;DHT22;1509;51.964;7.628;2023-06-10T09:46:50;37.90;99.90
2999;DHT22;1509;51.964;7.628;2023-06-10T09:49:17;37.40;99.90
2999;DHT22;1509;51.964;7.628;2023-06-10T09:51:53;37.90;99.60
2999;DHT22;1509;51.964;7.628;2023-06-10T09:54:20;38.20;98.30
2999;DHT22;1509;51.964;7.628;2023-06-10T09:56:51;38.50;97.60
2999;DHT22;1509;51.964;7.628;2023-06-10T09:59:28;38.70;96.90
2999;DHT22;1509;51.964;7.628;2023-06-10T10:01:55;38.90;97.20
2999;DHT22;1509;51.964;7.628;2023-06-10T10:04:25;39.20;95.90
2999;DHT22;1509;51.964;7.628;2023-06-10T10:06:51;40.00;95.50
2999;DHT22;1509;51.964;7.628;2023-06-10T10:09:16;39.80;94.30
2999;DHT22;1509;51.964;7.628;2023-06-10T10:11:43;39.60;94.10
2999;DHT22;1509;51.964;7.628;2023-06-10T10:14:09;39.50;93.60
2999;DHT22;1509;51.964;7.628;2023-06-10T10:16:40;39.50;93.70
2999;DHT22;1509;51.964;7.628;2023-06-10T10:19:20;39.60;92.90
2999;DHT22;1509;51.964;7.628;2023-06-10T10:21:53;39.10;92.70
2999;DHT22;1509;51.964;7.628;2023-06-10T10:24:21;39.60;93.20
2999;DHT22;1509;51.964;7.628;2023-06-10T10:26:50;40.00;92.40
2999;DHT22;1509;51.964;7.628;2023-06-10T10:29:20;40.40;92.10
2999;DHT22;1509;51.964;7.628;2023-06-10T10:31:51;40.20;91.40
2999;DHT22;1509;51.964;7.628;2023-06-10T10:34:35;40.20;91.50
2999;DHT22;1509;51.964;7.628;2023-06-10T10:37:02;40.10;91.00
2999;DHT22;1509;51.964;7.628;2023-06-10T10:39:29;40.30;91.30
2999;DHT22;1509;51.964;7.628;2023-06-10T10:41:55;40.40;90.90
2999;DHT22;1509;51.964;7.628;2023-06-10T10:44:25;40.30;91.00
2999;DHT22;1509;51.964;7.628;2023-06-10T10:46:54;40.00;90.40
2999;DHT22;1509;51.964;7.628;2023-06-10T10:49:22;40.10;90.70
2999;DHT22;1509;51.964;7.628;2023-06-10T10:51:59;40.70;90.40
2999;DHT22;1509;51.964;7.628;2023-06-10T10:54:36;40.90;90.20
2999;DHT22;1509;51.964;7.628;2023-06-10T10:57:22;40.90;89.80
2999;DHT22;1509;51.964;7.628;2023-06-10T10:59:51;40.30;89.20
2999;DHT22;1509;51.964;7.628;2023-06-10T11:02:34;40.30;88.80
2999;DHT22;1509;51.964;7.628;2023-06-10T11:05:01;40.70;88.80
2999;DHT22;1509;51.964;7.628;2023-06-10T11:07:30;40.70;89.00
2999;DHT22;1509;51.964;7.628;2023-06-10T11:10:10;40.90;88.20
2999;DHT22;1509;51.964;7.628;2023-06-10T11:15:14;40.30;86.60
2999;DHT22;1509;51.964;7.628;2023-06-10T11:18:09;40.20;87.30
2999;DHT22;1509;51.964;7.628;2023-06-10T11:20:43;40.20;86.90
2999;DHT22;1509;51.964;7.628;2023-06-10T11:23:09;40.40;87.20
2999;DHT22;1509;51.964;7.628;2023-06-10T11:25:39;40.60;86.60
2999;DHT22;1509;51.964;7.628;2023-06-10T11:28:18;40.70;86.10
2999;DHT22;1509;51.964;7.628;2023-06-10T11:30:45;40.70;85.40
2999;DHT22;1509;51.964;7.628;2023-06-10T11:33:16;40.60;85.70
2999;DHT22;1509;51.964;7.628;2023-06-10T11:35:43;40.70;86.20
2999;DHT22;1509;51.964;7.628;2023-06-10T11:38:09;40.40;84.70
2999;DHT22;1509;51.964;7.628;2023-06-10T11:40:36;39.70;86.10
2999;DHT22;1509;51.964;7.628;2023-06-10T11:43:04;39.20;85.40
2999;DHT22;1509;51.964;7.628;2023-06-10T11:45:30;38.80;86.30
2999;DHT22;1509;51.964;7.628;2023-06-10T11:47:57;38.70;86.40
2999;DHT22;1509;51.964;7.628;2023-06-10T11:50:33;38.50;85.20
2999;DHT22;1509;51.964;7.628;2023-06-10T11:52:59;38.60;84.20
2999;DHT22;1509;51.964;7.628;2023-06-10T11:55:40;38.90;86.00
2999;DHT22;1509;51.964;7.628;2023-06-10T11:58:15;39.80;86.20
2999;DHT22;1509;51.964;7.628;2023-06-10T12:00:54;39.90;85.70
2999;DHT22;1509;51.964;7.628;2023-06-10T12:03:23;40.30;86.70
2999;DHT22;1509;51.964;7.628;2023-06-10T12:08:21;41.20;85.30
2999;DHT22;1509;51.964;7.628;2023-06-10T12:10:47;40.80;84.30
2999;DHT22;1509;51.964;7.628;2023-06-10T12:13:13;41.00;84.20
2999;DHT22;1509;51.964;7.628;2023-06-10T12:15:38;40.40;84.80
2999;DHT22;1509;51.964;7.628;2023-06-10T12:18:04;40.50;84.80
2999;DHT22;1509;51.964;7.628;2023-06-10T12:20:31;40.70;83.30
2999;DHT22;1509;51.964;7.628;2023-06-10T12:23:00;40.00;83.50
2999;DHT22;1509;51.964;7.628;2023-06-10T12:25:28;39.80;84.00
2999;DHT22;1509;51.964;7.628;2023-06-10T12:27:58;39.90;83.30
2999;DHT22;1509;51.964;7.628;2023-06-10T12:30:25;39.40;83.70
2999;DHT22;1509;51.964;7.628;2023-06-10T12:32:52;39.20;83.30
2999;DHT22;1509;51.964;7.628;2023-06-10T12:35:20;39.70;84.30
2999;DHT22;1509;51.964;7.628;2023-06-10T12:37:58;40.10;83.50
2999;DHT22;1509;51.964;7.628;2023-06-10T12:40:30;39.30;83.00
2999;DHT22;1509;51.964;7.628;2023-06-10T12:42:57;39.00;83.50
2999;DHT22;1509;51.964;7.628;2023-06-10T12:45:36;39.20;83.70
2999;DHT22;1509;51.964;7.628;2023-06-10T12:48:21;39.60;83.50
2999;DHT22;1509;51.964;7.628;2023-06-10T12:50:55;39.40;82.90
2999;DHT22;1509;51.964;7.628;2023-06-10T12:53:21;39.40;83.90
2999;DHT22;1509;51.964;7.628;2023-06-10T12:55:48;39.60;83.90
2999;DHT22;1509;51.964;7.628;2023-06-10T12:58:14;39.80;83.10
2999;DHT22;1509;51.964;7.628;2023-06-10T13:00:40;39.30;82.80
2999;DHT22;1509;51.964;7.628;2023-06-10T13:03:09;38.70;82.00
2999;DHT22;1509;51.964;7.628;2023-06-10T13:05:36;38.20;82.20
2999;DHT22;1509;51.964;7.628;2023-06-10T13:08:08;37.90;83.30
2999;DHT22;1509;51.964;7.628;2023-06-10T13:10:35;38.10;85.00
2999;DHT22;1509;51.964;7.628;2023-06-10T13:13:02;38.40;84.50
2999;DHT22;1509;51.964;7.628;2023-06-10T13:15:30;38.50;83.80
2999;DHT22;1509;51.964;7.628;2023-06-10T13:17:56;38.40;83.70
2999;DHT22;1509;51.964;7.628;2023-06-10T13:20:22;38.50;84.00
2999;DHT22;1509;51.964;7.628;2023-06-10T13:22:48;38.10;83.80
2999;DHT22;1509;51.964;7.628;2023-06-10T13:25:14;37.70;83.50
2999;DHT22;1509;51.964;7.628;2023-06-10T13:27:40;37.50;83.50
2999;DHT22;1509;51.964;7.628;2023-06-10T13:30:08;37.60;84.10
2999;DHT22;1509;51.964;7.628;2023-06-10T13:32:35;37.60;84.40
2999;DHT22;1509;51.964;7.628;2023-06-10T13:35:01;37.10;84.60
2999;DHT22;1509;51.964;7.628;2023-06-10T13:37:27;36.90;84.10
2999;DHT22;1509;51.964;7.628;2023-06-10T13:39:53;36.60;82.80
2999;DHT22;1509;51.964;7.628;2023-06-10T13:42:19;36.40;83.50
2999;DHT22;1509;51.964;7.628;2023-06-10T13:44:45;36.20;83.40
2999;DHT22;1509;51.964;7.628;2023-06-10T13:47:13;36.10;84.50
2999;DHT22;1509;51.964;7.628;2023-06-10T13:49:38;35.20;84.40
2999;DHT22;1509;51.964;7.628;2023-06-10T13:52:05;34.70;85.40
2999;DHT22;1509;51.964;7.628;2023-06-10T13:54:31;34.30;86.50
2999;DHT22;1509;51.964;7.628;2023-06-10T13:56:57;34.20;86.30
2999;DHT22;1509;51.964;7.628;2023-06-10T13:59:23;34.00;86.60
2999;DHT22;1509;51.964;7.628;2023-06-10T14:01:49;33.70;85.80
2999;DHT22;1509;51.964;7.628;2023-06-10T14:04:14;33.70;86.70
2999;DHT22;1509;51.964;7.628;2023-06-10T14:06:40;33.70;87.20
2999;DHT22;1509;51.964;7.628;2023-06-10T14:09:06;33.40;87.20
2999;DHT22;1509;51.964;7.628;2023-06-10T14:11:32;33.40;88.60
2999;DHT22;1509;51.964;7.628;2023-06-10T14:13:58;33.20;88.30
2999;DHT22;1509;51.964;7.628;2023-06-10T14:16:27;33.00;89.00
2999;DHT22;1509;51.964;7.628;2023-06-10T14:18:53;32.90;89.60
2999;DHT22;1509;51.964;7.628;2023-06-10T14:21:19;32.90;88.90
2999;DHT22;1509;51.964;7.628;2023-06-10T14:23:45;32.80;89.70
2999;DHT22;1509;51.964;7.628;2023-06-10T14:26:11;32.90;89.80
2999;DHT22;1509;51.964;7.628;2023-06-10T14:28:37;32.80;90.00
2999;DHT22;1509;51.964;7.628;2023-06-10T14:31:03;32.80;90.40
2999;DHT22;1509;51.964;7.628;2023-06-10T14:33:28;32.80;90.70
2999;DHT22;1509;51.964;7.628;2023-06-10T14:35:56;32.60;90.40
2999;DHT22;1509;51.964;7.628;2023-06-10T14:38:22;32.50;90.50
2999;DHT22;1509;51.964;7.628;2023-06-10T14:40:47;32.40;90.90
2999;DHT22;1509;51.964;7.628;2023-06-10T14:43:13;32.40;90.80
2999;DHT22;1509;51.964;7.628;2023-06-10T14:45:40;32.50;90.70
2999;DHT22;1509;51.964;7.628;2023-06-10T14:48:06;32.60;91.00
2999;DHT22;1509;51.964;7.628;2023-06-10T14:50:33;32.60;90.80
2999;DHT22;1509;51.964;7.628;2023-06-10T14:53:00;32.60;90.90
2999;DHT22;1509;51.964;7.628;2023-06-10T14:55:26;32.40;90.30
2999;DHT22;1509;51.964;7.628;2023-06-10T14:57:52;32.30;90.10
2999;DHT22;1509;51.964;7.628;2023-06-10T15:00:18;32.00;90.30
2999;DHT22;1509;51.964;7.628;2023-06-10T15:02:47;32.10;90.40
2999;DHT22;1509;51.964;7.628;2023-06-10T15:05:14;32.00;90.80
2999;DHT22;1509;51.964;7.628;2023-06-10T15:07:45;32.00;91.20
2999;DHT22;1509;51.964;7.628;2023-06-10T15:10:11;31.90;91.10
2999;DHT22;1509;51.964;7.628;2023-06-10T15:12:36;32.00;90.90
2999;DHT22;1509;51.964;7.628;2023-06-10T15:15:03;31.90;90.90
2999;DHT22;1509;51.964;7.628;2023-06-10T15:17:29;31.90;91.10
2999;DHT22;1509;51.964;7.628;2023-06-10T15:19:55;31.80;91.00
2999;DHT22;1509;51.964;7.628;2023-06-10T15:22:21;31.60;90.70
2999;DHT22;1509;51.964;7.628;2023-06-10T15:24:47;31.50;91.10
2999;DHT22;1509;51.964;7.628;2023-06-10T15:27:13;31.60;91.00
2999;DHT22;1509;51.964;7.628;2023-06-10T15:29:42;31.50;90.70
2999;DHT22;1509;51.964;7.628;2023-06-10T15:32:08;31.50;90.80
2999;DHT22;1509;51.964;7.628;2023-06-10T15:34:34;31.40;90.60
2999;DHT22;1509;51.964;7.628;2023-06-10T15:37:01;31.30;91.30
2999;DHT22;1509;51.964;7.628;2023-06-10T15:39:27;31.30;91.50
2999;DHT22;1509;51.964;7.628;2023-06-10T15:41:58;31.30;91.60
2999;DHT22;1509;51.964;7.628;2023-06-10T15:44:28;31.40;91.30
2999;DHT22;1509;51.964;7.628;2023-06-10T15:46:53;31.40;91.80
2999;DHT22;1509;51.964;7.628;2023-06-10T15:49:19;31.30;91.70
2999;DHT22;1509;51.964;7.628;2023-06-10T15:51:45;31.20;91.80
2999;DHT22;1509;51.964;7.628;2023-06-10T15:54:11;31.20;91.80
2999;DHT22;1509;51.964;7.628;2023-06-10T15:56:36;31.00;91.90
2999;DHT22;1509;51.964;7.628;2023-06-10T15:59:05;31.30;91.40
2999;DHT22;1509;51.964;7.628;2023-06-10T16:01:30;31.10;91.40
2999;DHT22;1509;51.964;7.628;2023-06-10T16:03:56;31.20;91.80
2999;DHT22;1509;51.964;7.628;2023-06-10T16:06:22;31.20;91.80
2999;DHT22;1509;51.964;7.628;2023-06-10T16:08:53;31.10;91.60
2999;DHT22;1509;51.964;7.628;2023-06-10T16:11:19;31.00;91.30
2999;DHT22;1509;51.964;7.628;2023-06-10T16:13:45;30.90;91.00
2999;DHT22;1509;51.964;7.628;2023-06-10T16:16:11;31.00;91.30
2999;DHT22;1509;51.964;7.628;2023-06-10T16:18:36;31.10;91.30